createdAt,value
2019-03-27T00:01:16.388Z,61.89
2019-03-27T00:03:47.694Z,61.81
2019-03-27T00:06:19.042Z,61.86
2019-03-27T00:08:50.107Z,61.88
2019-03-27T00:11:21.267Z,61.74
2019-03-27T00:13:52.563Z,61.71
2019-03-27T00:16:23.656Z,62.04
2019-03-27T00:18:54.781Z,62.08
2019-03-27T00:21:27.792Z,62.15
2019-03-27T00:23:58.933Z,62.44
2019-03-27T00:26:30.533Z,62.77
2019-03-27T00:29:01.699Z,62.74
2019-03-27T00:31:32.902Z,62.22
2019-03-27T00:34:04.095Z,62.24
2019-03-27T00:36:37.805Z,61.79
2019-03-27T00:39:09.036Z,62.11
2019-03-27T00:41:40.194Z,61.78
2019-03-27T00:44:11.232Z,62.72
2019-03-27T00:46:43.798Z,62.67
2019-03-27T00:49:15.822Z,62.84
2019-03-27T00:51:46.927Z,62.93
2019-03-27T00:54:18.143Z,62.96
2019-03-27T00:56:49.532Z,62.96
2019-03-27T00:59:22.340Z,62.94
2019-03-27T01:01:53.439Z,62.96
2019-03-27T01:04:33.347Z,62.78
2019-03-27T01:07:03.797Z,62.82
2019-03-27T01:09:36.835Z,62.90
2019-03-27T01:12:08.072Z,63.01
2019-03-27T01:14:39.266Z,62.83
2019-03-27T01:17:10.529Z,63.44
2019-03-27T01:19:41.757Z,63.16
2019-03-27T01:22:12.932Z,62.51
2019-03-27T01:24:44.461Z,63.29
2019-03-27T01:27:15.703Z,62.93
2019-03-27T01:29:46.881Z,62.59
2019-03-27T01:32:18.231Z,62.69
2019-03-27T01:34:49.458Z,62.16
2019-03-27T01:37:20.827Z,62.33
2019-03-27T01:39:52.315Z,62.21
2019-03-27T01:42:23.524Z,62.10
2019-03-27T01:44:54.583Z,62.20
2019-03-27T01:47:25.707Z,62.12
2019-03-27T01:49:56.942Z,61.73
2019-03-27T01:52:28.101Z,61.90
2019-03-27T01:54:59.254Z,61.89
2019-03-27T01:57:30.450Z,62.56
2019-03-27T02:00:01.521Z,62.37
2019-03-27T02:02:34.424Z,62.38
2019-03-27T02:05:10.494Z,62.64
2019-03-27T02:07:41.606Z,62.25
2019-03-27T02:10:13.792Z,62.39
2019-03-27T02:12:45.038Z,61.99
2019-03-27T02:15:16.199Z,61.95
2019-03-27T02:17:47.290Z,61.83
2019-03-27T02:20:18.488Z,61.91
2019-03-27T02:22:49.739Z,62.41
2019-03-27T02:25:22.065Z,63.79
2019-03-27T02:27:53.313Z,63.50
2019-03-27T02:30:24.567Z,63.49
2019-03-27T02:32:55.632Z,62.92
2019-03-27T02:35:26.693Z,64.30
2019-03-27T02:37:57.703Z,64.75
2019-03-27T02:40:28.855Z,65.79
2019-03-27T02:43:00.089Z,65.87
2019-03-27T02:45:31.363Z,65.76
2019-03-27T02:48:02.568Z,65.46
2019-03-27T02:50:33.741Z,66.28
2019-03-27T02:53:04.934Z,66.87
2019-03-27T02:55:36.146Z,68.15
2019-03-27T02:58:07.577Z,67.46
2019-03-27T03:00:38.823Z,66.76
2019-03-27T03:03:10.008Z,66.25
2019-03-27T03:05:41.078Z,65.66
2019-03-27T03:08:12.159Z,64.60
2019-03-27T03:10:45.950Z,63.80
2019-03-27T03:13:16.374Z,63.60
2019-03-27T03:15:47.456Z,63.61
2019-03-27T03:18:18.589Z,63.07
2019-03-27T03:20:49.650Z,63.26
2019-03-27T03:23:20.656Z,62.75
2019-03-27T03:25:51.948Z,62.40
2019-03-27T03:28:23.071Z,62.40
2019-03-27T03:30:55.182Z,61.91
2019-03-27T03:33:26.418Z,61.85
2019-03-27T03:35:57.594Z,61.99
2019-03-27T03:38:28.659Z,61.69
2019-03-27T03:40:59.790Z,62.01
2019-03-27T03:43:30.950Z,61.38
2019-03-27T03:46:02.121Z,61.80
2019-03-27T03:48:35.656Z,61.54
2019-03-27T03:51:06.818Z,61.25
2019-03-27T03:53:38.126Z,61.29
2019-03-27T03:56:11.237Z,60.27
2019-03-27T03:58:42.418Z,60.31
2019-03-27T04:01:13.596Z,59.41
2019-03-27T04:03:44.914Z,59.40
2019-03-27T04:06:16.157Z,59.29
2019-03-27T04:08:47.172Z,59.21
2019-03-27T04:11:18.297Z,58.90
2019-03-27T04:13:49.621Z,58.80
2019-03-27T04:16:21.051Z,58.57
2019-03-27T04:18:52.202Z,58.51
2019-03-27T04:21:26.780Z,57.67
2019-03-27T04:23:56.170Z,57.49
2019-03-27T04:26:33.244Z,57.52
2019-03-27T04:29:01.783Z,57.00
2019-03-27T04:31:33.003Z,57.10
2019-03-27T04:34:04.085Z,57.01
2019-03-27T04:36:35.431Z,56.28
2019-03-27T04:39:06.494Z,56.50
2019-03-27T04:41:37.640Z,56.52
2019-03-27T04:44:08.668Z,56.52
2019-03-27T04:46:39.783Z,56.56
2019-03-27T04:49:10.804Z,56.82
2019-03-27T04:51:41.787Z,55.82
2019-03-27T04:54:13.031Z,55.75
2019-03-27T04:56:53.328Z,55.68
2019-03-27T04:59:24.363Z,55.44
2019-03-27T05:01:55.664Z,55.12
2019-03-27T05:04:27.418Z,54.66
2019-03-27T05:06:58.581Z,54.44
2019-03-27T05:09:29.747Z,54.28
2019-03-27T05:12:01.919Z,54.29
2019-03-27T05:14:32.950Z,54.18
2019-03-27T05:17:05.210Z,54.48
2019-03-27T05:19:36.376Z,54.17
2019-03-27T05:22:07.413Z,53.85
2019-03-27T05:24:38.428Z,53.62
2019-03-27T05:27:09.418Z,53.37
2019-03-27T05:29:40.835Z,53.08
2019-03-27T05:32:12.066Z,53.23
2019-03-27T05:34:43.265Z,52.66
2019-03-27T05:37:14.466Z,52.06
2019-03-27T05:39:45.564Z,52.07
2019-03-27T05:42:18.203Z,56.96
2019-03-27T05:44:49.251Z,56.96
2019-03-27T05:47:20.484Z,58.21
2019-03-27T05:49:51.724Z,57.85
2019-03-27T05:52:22.979Z,58.42
2019-03-27T05:54:54.078Z,56.42
2019-03-27T05:57:25.151Z,56.55
2019-03-27T05:59:56.551Z,55.87
2019-03-27T06:02:27.615Z,54.85
2019-03-27T06:04:59.002Z,56.21
2019-03-27T06:07:30.134Z,57.58
2019-03-27T06:10:01.230Z,56.15
2019-03-27T06:12:32.449Z,56.00
2019-03-27T06:15:06.583Z,56.51
2019-03-27T06:17:39.361Z,56.30
2019-03-27T06:20:10.555Z,55.77
2019-03-27T06:22:41.659Z,55.86
2019-03-27T06:25:12.858Z,56.40
2019-03-27T06:27:44.015Z,56.56
2019-03-27T06:30:17.996Z,55.76
2019-03-27T06:32:49.091Z,53.25
2019-03-27T06:35:20.438Z,50.41
2019-03-27T06:37:51.624Z,53.21
2019-03-27T06:40:22.912Z,56.07
2019-03-27T06:42:54.041Z,56.66
2019-03-27T06:45:25.214Z,55.98
2019-03-27T06:47:56.555Z,53.80
2019-03-27T06:50:27.637Z,45.65
2019-03-27T06:52:58.656Z,44.02
2019-03-27T06:55:29.690Z,43.58
2019-03-27T06:58:01.113Z,45.56
2019-03-27T07:00:36.664Z,46.71
2019-03-27T07:03:08.150Z,48.61
2019-03-27T07:05:39.381Z,48.50
2019-03-27T07:08:10.460Z,48.42
2019-03-27T07:10:42.466Z,47.52
2019-03-27T07:13:13.616Z,45.73
2019-03-27T07:15:44.819Z,45.07
2019-03-27T07:18:16.150Z,39.42
2019-03-27T07:20:47.365Z,38.06
2019-03-27T07:23:18.483Z,36.91
2019-03-27T07:25:49.675Z,36.82
2019-03-27T07:28:21.009Z,36.28
2019-03-27T07:30:52.000Z,35.45
2019-03-27T07:33:23.071Z,34.96
2019-03-27T07:35:55.269Z,34.91
2019-03-27T07:38:27.966Z,34.87
2019-03-27T07:40:58.978Z,34.92
2019-03-27T07:43:29.993Z,35.31
2019-03-27T07:46:01.158Z,35.38
2019-03-27T07:48:32.475Z,35.54
2019-03-27T07:51:03.428Z,35.33
2019-03-27T07:53:34.502Z,34.06
2019-03-27T07:56:06.822Z,34.15
2019-03-27T07:58:37.974Z,34.32
2019-03-27T08:01:11.015Z,34.47
2019-03-27T08:03:42.119Z,34.72
2019-03-27T08:06:13.226Z,35.14
2019-03-27T08:08:44.201Z,35.64
2019-03-27T08:11:15.283Z,35.22
2019-03-27T08:13:46.217Z,34.74
2019-03-27T08:16:17.509Z,34.64
2019-03-27T08:18:48.460Z,34.46
2019-03-27T08:21:23.267Z,35.19
2019-03-27T08:23:54.342Z,35.33
2019-03-27T08:26:25.729Z,35.12
2019-03-27T08:28:57.325Z,35.00
2019-03-27T08:31:28.419Z,35.22
2019-03-27T08:33:59.540Z,36.76
2019-03-27T08:36:30.977Z,35.37
2019-03-27T08:39:03.415Z,36.17
2019-03-27T08:41:35.867Z,36.26
2019-03-27T08:44:09.921Z,35.52
2019-03-27T08:46:41.025Z,34.83
2019-03-27T08:49:21.778Z,34.86
2019-03-27T08:51:44.832Z,34.85
2019-03-27T08:54:16.163Z,35.21
2019-03-27T08:56:47.287Z,35.74
2019-03-27T08:59:18.435Z,35.51
2019-03-27T09:01:49.659Z,35.58
2019-03-27T09:04:20.730Z,35.40
2019-03-27T09:06:51.653Z,35.31
2019-03-27T09:09:23.075Z,35.07
2019-03-27T09:11:54.075Z,34.99
2019-03-27T09:14:25.251Z,37.49
2019-03-27T09:16:56.285Z,38.77
2019-03-27T09:19:35.548Z,38.75
2019-03-27T09:22:02.746Z,39.39
2019-03-27T09:24:33.804Z,40.92
2019-03-27T09:27:04.760Z,40.37
2019-03-27T09:29:35.775Z,40.72
2019-03-27T09:32:06.824Z,40.30
2019-03-27T09:34:37.970Z,40.52
2019-03-27T09:37:09.092Z,40.22
2019-03-27T09:39:40.200Z,39.91
2019-03-27T09:42:11.201Z,39.42
2019-03-27T09:44:42.253Z,39.63
2019-03-27T09:47:13.477Z,39.22
2019-03-27T09:49:49.823Z,38.52
2019-03-27T09:52:17.620Z,38.22
2019-03-27T09:54:48.950Z,38.62
2019-03-27T09:57:20.318Z,37.63
2019-03-27T09:59:54.098Z,36.78
2019-03-27T10:02:25.022Z,34.68
2019-03-27T10:04:56.208Z,33.58
2019-03-27T10:07:27.170Z,33.01
2019-03-27T10:09:58.489Z,34.86
2019-03-27T10:12:29.784Z,33.15
2019-03-27T10:15:00.785Z,33.23
2019-03-27T10:17:31.808Z,35.00
2019-03-27T10:20:04.065Z,35.28
2019-03-27T10:22:37.234Z,35.46
2019-03-27T10:25:08.487Z,35.51
2019-03-27T10:27:43.129Z,34.91
2019-03-27T10:30:15.481Z,35.16
2019-03-27T10:32:46.317Z,35.26
2019-03-27T10:35:17.402Z,35.62
2019-03-27T10:37:48.417Z,35.74
2019-03-27T10:40:19.493Z,35.14
2019-03-27T10:42:50.493Z,36.80
2019-03-27T10:45:21.765Z,37.59
2019-03-27T10:47:52.886Z,37.54
2019-03-27T10:50:24.052Z,38.49
2019-03-27T10:52:55.265Z,38.13
2019-03-27T10:55:29.326Z,38.49
2019-03-27T10:58:00.549Z,38.87
2019-03-27T11:00:32.456Z,36.67
2019-03-27T11:03:03.616Z,36.76
2019-03-27T11:05:38.352Z,37.34
2019-03-27T11:08:11.738Z,36.68
2019-03-27T11:10:44.976Z,36.82
2019-03-27T11:13:18.158Z,37.08
2019-03-27T11:15:49.611Z,36.86
2019-03-27T11:18:21.989Z,37.07
2019-03-27T11:20:53.295Z,38.01
2019-03-27T11:23:25.283Z,37.89
2019-03-27T11:25:56.359Z,37.41
2019-03-27T11:28:27.344Z,36.11
2019-03-27T11:30:58.354Z,36.04
2019-03-27T11:33:29.568Z,36.41
2019-03-27T11:36:00.625Z,37.10
2019-03-27T11:38:31.744Z,36.91
2019-03-27T11:41:04.716Z,37.07
2019-03-27T11:43:35.747Z,36.82
2019-03-27T11:46:06.882Z,35.97
2019-03-27T11:48:37.923Z,36.46
2019-03-27T11:51:09.105Z,36.65
2019-03-27T11:53:40.393Z,36.26
2019-03-27T11:56:11.591Z,36.47
2019-03-27T11:58:42.860Z,36.74
2019-03-27T12:01:13.942Z,36.77
2019-03-27T12:03:45.050Z,37.25
2019-03-27T12:06:17.840Z,37.29
2019-03-27T12:08:50.985Z,37.28
2019-03-27T12:11:22.315Z,37.84
2019-03-27T12:13:53.436Z,38.22
2019-03-27T12:16:24.665Z,38.75
2019-03-27T12:18:55.740Z,39.33
2019-03-27T12:21:26.736Z,39.94
2019-03-27T12:23:57.922Z,39.90
2019-03-27T12:26:29.145Z,40.19
2019-03-27T12:29:00.209Z,41.02
2019-03-27T12:31:31.363Z,43.74
2019-03-27T12:34:02.537Z,46.28
2019-03-27T12:36:33.747Z,47.94
2019-03-27T12:39:06.667Z,50.16
2019-03-27T12:41:38.731Z,51.58
2019-03-27T12:44:09.928Z,53.62
2019-03-27T12:46:42.342Z,56.92
2019-03-27T12:49:13.459Z,58.68
2019-03-27T12:51:44.634Z,59.98
2019-03-27T12:54:15.714Z,60.68
2019-03-27T12:56:46.823Z,61.82
2019-03-27T12:59:17.772Z,61.83
2019-03-27T13:01:52.500Z,63.49
2019-03-27T13:04:23.748Z,63.50
2019-03-27T13:06:55.060Z,64.85
2019-03-27T13:09:26.146Z,65.53
2019-03-27T13:11:58.220Z,65.23
2019-03-27T13:14:29.385Z,66.20
2019-03-27T13:17:00.515Z,66.53
2019-03-27T13:19:31.714Z,66.80
2019-03-27T13:22:02.810Z,67.07
2019-03-27T13:24:33.938Z,67.98
2019-03-27T13:27:05.604Z,69.03
2019-03-27T13:29:36.648Z,68.84
2019-03-27T13:32:07.786Z,69.47
2019-03-27T13:34:38.792Z,69.98
2019-03-27T13:37:09.921Z,70.32
2019-03-27T13:39:41.166Z,71.12
2019-03-27T13:42:13.198Z,71.11
2019-03-27T13:44:44.437Z,70.60
2019-03-27T13:47:15.547Z,71.27
2019-03-27T13:49:46.790Z,71.20
2019-03-27T13:52:17.929Z,71.68
2019-03-27T13:54:49.156Z,71.41
2019-03-27T13:57:20.245Z,72.01
2019-03-27T13:59:51.457Z,72.07
2019-03-27T14:02:22.460Z,72.31
2019-03-27T14:04:53.683Z,72.70
2019-03-27T14:07:27.582Z,71.95
2019-03-27T14:09:58.738Z,72.44
2019-03-27T14:12:30.113Z,72.72
2019-03-27T14:15:01.801Z,72.96
2019-03-27T14:17:33.556Z,72.43
2019-03-27T14:20:06.625Z,72.43
2019-03-27T14:22:38.738Z,72.42
2019-03-27T14:25:09.912Z,73.09
2019-03-27T14:27:41.288Z,73.44
2019-03-27T14:30:17.002Z,73.42
2019-03-27T14:32:50.380Z,73.64
2019-03-27T14:35:21.444Z,73.63
2019-03-27T14:37:52.433Z,74.42
2019-03-27T14:40:23.586Z,75.05
2019-03-27T14:42:56.773Z,74.99
2019-03-27T14:45:28.127Z,74.49
2019-03-27T14:48:01.090Z,74.50
2019-03-27T14:50:32.209Z,74.72
2019-03-27T14:53:04.256Z,75.10
2019-03-27T14:55:35.487Z,75.57
2019-03-27T14:58:06.810Z,75.32
2019-03-27T15:00:39.520Z,76.16
2019-03-27T15:03:10.647Z,75.61
2019-03-27T15:05:41.809Z,76.14
2019-03-27T15:08:13.061Z,76.40
2019-03-27T15:10:44.077Z,76.28
2019-03-27T15:13:25.547Z,76.49
2019-03-27T15:15:56.871Z,77.05
2019-03-27T15:18:28.072Z,77.39
2019-03-27T15:20:59.238Z,77.99
2019-03-27T15:23:30.465Z,77.85
2019-03-27T15:26:01.652Z,78.20
2019-03-27T15:28:32.856Z,78.08
2019-03-27T15:31:03.999Z,78.01
2019-03-27T15:33:35.081Z,77.92
2019-03-27T15:36:06.082Z,78.29
2019-03-27T15:38:37.283Z,78.48
2019-03-27T15:41:08.445Z,78.52
2019-03-27T15:43:39.598Z,78.85
2019-03-27T15:46:10.771Z,78.83
2019-03-27T15:48:41.822Z,79.36
2019-03-27T15:51:12.864Z,79.61
2019-03-27T15:53:47.319Z,79.85
2019-03-27T15:56:18.307Z,80.06
2019-03-27T15:58:49.300Z,80.23
2019-03-27T16:01:20.305Z,80.33
2019-03-27T16:03:51.467Z,80.27
2019-03-27T16:06:22.497Z,80.24
2019-03-27T16:08:53.627Z,80.22
2019-03-27T16:11:25.731Z,80.24
2019-03-27T16:13:56.957Z,80.42
2019-03-27T16:16:28.003Z,80.63
2019-03-27T16:18:59.189Z,80.92
2019-03-27T16:21:30.357Z,81.29
2019-03-27T16:24:06.542Z,81.52
2019-03-27T16:26:34.321Z,81.58
2019-03-27T16:29:05.442Z,81.39
2019-03-27T16:31:36.575Z,81.36
2019-03-27T16:34:07.657Z,81.33
2019-03-27T16:36:38.699Z,81.32
2019-03-27T16:39:09.933Z,81.66
2019-03-27T16:41:41.014Z,81.66
2019-03-27T16:44:12.054Z,81.71
2019-03-27T16:46:43.195Z,81.70
2019-03-27T16:49:14.409Z,81.80
2019-03-27T16:51:45.574Z,81.80
2019-03-27T16:54:16.769Z,81.69
2019-03-27T16:56:47.828Z,81.65
2019-03-27T16:59:18.857Z,81.91
2019-03-27T17:01:49.957Z,82.25
2019-03-27T17:04:21.422Z,82.40
2019-03-27T17:06:52.776Z,82.50
2019-03-27T17:09:23.784Z,82.57
2019-03-27T17:11:54.819Z,82.76
2019-03-27T17:14:25.897Z,82.74
2019-03-27T17:16:56.964Z,82.55
2019-03-27T17:19:28.213Z,82.63
2019-03-27T17:21:59.290Z,82.68
2019-03-27T17:24:30.534Z,82.71
2019-03-27T17:27:01.931Z,82.77
2019-03-27T17:29:33.202Z,82.74
2019-03-27T17:32:04.580Z,82.77
2019-03-27T17:34:35.765Z,82.79
2019-03-27T17:37:09.050Z,82.87
2019-03-27T17:39:40.434Z,82.83
2019-03-27T17:42:11.830Z,82.80
2019-03-27T17:44:42.953Z,82.90
2019-03-27T17:47:14.092Z,82.77
2019-03-27T17:49:45.594Z,82.78
2019-03-27T17:52:16.728Z,82.80
2019-03-27T17:54:47.807Z,82.68
2019-03-27T17:57:18.895Z,82.71
2019-03-27T17:59:50.156Z,82.71
2019-03-27T18:02:21.271Z,82.82
2019-03-27T18:04:52.459Z,82.81
2019-03-27T18:07:23.990Z,82.75
2019-03-27T18:09:55.038Z,82.58
2019-03-27T18:12:28.782Z,82.48
2019-03-27T18:15:00.151Z,82.38
2019-03-27T18:17:31.379Z,82.32
2019-03-27T18:20:02.533Z,82.39
2019-03-27T18:22:33.824Z,82.51
2019-03-27T18:25:06.316Z,82.62
2019-03-27T18:27:37.396Z,82.56
2019-03-27T18:30:08.523Z,82.48
2019-03-27T18:32:39.811Z,82.33
2019-03-27T18:35:11.195Z,82.23
2019-03-27T18:37:42.363Z,82.25
2019-03-27T18:40:13.459Z,81.98
2019-03-27T18:42:44.649Z,81.97
2019-03-27T18:45:15.768Z,82.03
2019-03-27T18:47:47.082Z,82.05
2019-03-27T18:50:18.290Z,82.00
2019-03-27T18:52:49.406Z,81.76
2019-03-27T18:55:26.472Z,81.61
2019-03-27T18:57:59.972Z,81.47
2019-03-27T19:00:26.778Z,81.36
2019-03-27T19:02:58.180Z,81.28
2019-03-27T19:05:30.265Z,81.36
2019-03-27T19:08:01.308Z,81.34
2019-03-27T19:10:32.467Z,81.20
2019-03-27T19:13:03.491Z,81.14
2019-03-27T19:15:35.736Z,81.19
2019-03-27T19:18:06.778Z,81.20
2019-03-27T19:20:37.863Z,81.08
2019-03-27T19:23:08.885Z,81.07
2019-03-27T19:25:43.032Z,81.10
2019-03-27T19:28:14.141Z,81.03
2019-03-27T19:30:45.452Z,81.05
2019-03-27T19:33:17.757Z,80.83
2019-03-27T19:35:49.042Z,81.11
2019-03-27T19:38:20.199Z,81.21
2019-03-27T19:40:52.392Z,81.08
2019-03-27T19:43:23.565Z,80.90
2019-03-27T19:45:57.384Z,81.02
2019-03-27T19:48:27.590Z,80.96
2019-03-27T19:50:58.712Z,81.03
2019-03-27T19:53:29.900Z,81.09
2019-03-27T19:56:01.171Z,81.19
2019-03-27T19:58:33.508Z,81.22
2019-03-27T20:01:05.619Z,81.22
2019-03-27T20:03:38.040Z,81.33
2019-03-27T20:06:09.348Z,81.36
2019-03-27T20:08:40.545Z,81.48
2019-03-27T20:11:11.876Z,81.28
2019-03-27T20:13:43.022Z,81.28
2019-03-27T20:16:14.227Z,81.10
2019-03-27T20:18:45.340Z,81.09
2019-03-27T20:21:16.384Z,81.23
2019-03-27T20:23:47.520Z,81.36
2019-03-27T20:26:18.703Z,81.29
2019-03-27T20:28:49.856Z,81.42
2019-03-27T20:31:21.152Z,81.36
2019-03-27T20:33:52.255Z,81.11
2019-03-27T20:36:27.895Z,81.06
2019-03-27T20:38:59.479Z,81.10
2019-03-27T20:41:30.535Z,80.88
2019-03-27T20:44:01.951Z,80.84
2019-03-27T20:46:33.188Z,80.77
2019-03-27T20:49:04.449Z,80.84
2019-03-27T20:51:36.164Z,80.87
2019-03-27T20:54:07.263Z,80.92
2019-03-27T20:56:39.496Z,81.02
2019-03-27T20:59:18.154Z,81.19
2019-03-27T21:01:47.895Z,81.36
2019-03-27T21:04:20.824Z,81.36
2019-03-27T21:06:52.251Z,81.24
2019-03-27T21:09:23.450Z,81.15
2019-03-27T21:11:56.142Z,81.25
2019-03-27T21:14:27.607Z,81.29
2019-03-27T21:16:58.724Z,81.28
2019-03-27T21:19:29.753Z,81.47
2019-03-27T21:22:00.996Z,81.64
2019-03-27T21:24:32.092Z,81.16
2019-03-27T21:27:03.130Z,80.78
2019-03-27T21:29:34.301Z,80.66
2019-03-27T21:32:05.405Z,80.50
2019-03-27T21:34:36.468Z,80.52
2019-03-27T21:37:08.467Z,80.47
2019-03-27T21:39:39.489Z,80.30
2019-03-27T21:42:11.686Z,80.29
2019-03-27T21:44:45.092Z,80.15
2019-03-27T21:47:16.317Z,80.03
2019-03-27T21:49:47.360Z,79.92
2019-03-27T21:52:18.561Z,80.10
2019-03-27T21:54:49.929Z,80.18
2019-03-27T21:57:21.041Z,80.37
2019-03-27T21:59:53.378Z,80.32
2019-03-27T22:02:25.856Z,80.32
2019-03-27T22:04:57.946Z,80.08
2019-03-27T22:07:29.048Z,80.02
2019-03-27T22:10:00.398Z,80.25
2019-03-27T22:12:31.645Z,80.21
2019-03-27T22:15:02.688Z,80.18
2019-03-27T22:17:33.930Z,80.30
2019-03-27T22:20:06.877Z,80.12
2019-03-27T22:22:38.218Z,80.17
2019-03-27T22:25:10.398Z,80.02
2019-03-27T22:27:41.436Z,80.21
2019-03-27T22:30:12.821Z,80.29
2019-03-27T22:32:43.980Z,80.37
2019-03-27T22:35:15.074Z,80.11
2019-03-27T22:37:46.258Z,80.13
2019-03-27T22:40:17.434Z,80.31
2019-03-27T22:42:48.725Z,80.46
2019-03-27T22:45:20.916Z,80.34
2019-03-27T22:47:52.000Z,80.25
2019-03-27T22:50:23.235Z,80.22
2019-03-27T22:52:54.382Z,80.45
2019-03-27T22:55:25.471Z,80.69
2019-03-27T22:57:56.573Z,80.67
2019-03-27T23:00:45.307Z,80.48
2019-03-27T23:03:18.606Z,80.62
2019-03-27T23:05:49.926Z,80.71
2019-03-27T23:08:22.066Z,80.59
2019-03-27T23:10:53.406Z,80.40
2019-03-27T23:13:24.512Z,80.57
2019-03-27T23:15:55.597Z,80.64
2019-03-27T23:18:30.507Z,80.47
2019-03-27T23:21:01.557Z,80.61
2019-03-27T23:23:32.606Z,80.66
2019-03-27T23:26:04.024Z,80.81
2019-03-27T23:28:35.138Z,80.76
2019-03-27T23:31:06.134Z,80.74
2019-03-27T23:33:37.272Z,80.81
2019-03-27T23:36:08.380Z,80.82
2019-03-27T23:38:39.697Z,80.60
2019-03-27T23:41:10.893Z,80.54
2019-03-27T23:43:43.087Z,80.55
2019-03-27T23:46:14.301Z,80.64
2019-03-27T23:48:49.906Z,80.59
2019-03-27T23:51:20.890Z,80.66
2019-03-27T23:53:51.932Z,80.74
2019-03-27T23:56:23.167Z,80.58
2019-03-27T23:59:00.286Z,80.50
